Time;durP1;ratioP1;P1;durP2;ratioP2;P2;SDS_P1;SDS_P2;PMS_P1;PMS_P2;Temp;Humidity;BMP_temperature;BMP_pressure;BME280_temperature;BME280_humidity;BME280_pressure;Samples;Min_cycle;Max_cycle;Signal;HPM_P1;HPM_P2
2023/03/30 00:01:23;;;;;;;4.47;2.53;;;;;;;;;;6249674;23;20951;-79
2023/03/30 00:03:53;;;;;;;8.30;3.07;;;;;;;;;;6247420;23;20413;-78
2023/03/30 00:06:26;;;;;;;6.00;3.80;;;;;;;;;;6250546;22;20479;-78
2023/03/30 00:08:57;;;;;;;6.27;2.80;;;;;;;;;;6249570;23;20366;-78
2023/03/30 00:11:36;;;;;;;5.80;2.77;;;;;;;;;;6248721;23;20899;-79
2023/03/30 00:14:10;;;;;;;9.03;3.20;;;;;;;;;;6249278;23;20713;-78
2023/03/30 00:16:42;;;;;;;6.87;2.93;;;;;;;;;;6250460;22;20444;-78
2023/03/30 00:19:11;;;;;;;7.63;3.40;;;;;;;;;;6248739;23;20409;-78
2023/03/30 00:21:42;;;;;;;14.93;3.50;;;;;;;;;;6247557;23;20750;-79
2023/03/30 00:24:10;;;;;;;8.47;3.57;;;;;;;;;;6248594;23;20413;-79
2023/03/30 00:26:42;;;;;;;8.77;2.93;;;;;;;;;;6247444;22;20453;-77
2023/03/30 00:29:10;;;;;;;15.47;3.00;;;;;;;;;;6248736;23;20481;-80
2023/03/30 00:31:38;;;;;;;8.07;3.07;;;;;;;;;;6247488;23;20420;-78
2023/03/30 00:34:15;;;;;;;8.17;2.40;;;;;;;;;;6248619;23;20417;-79
2023/03/30 00:36:52;;;;;;;10.73;3.10;;;;;;;;;;6248235;23;20437;-77
2023/03/30 00:39:21;;;;;;;8.87;3.33;;;;;;;;;;6246490;23;21049;-79
2023/03/30 00:41:53;;;;;;;7.40;2.60;;;;;;;;;;6246534;23;20475;-79
2023/03/30 00:44:42;;;;;;;7.77;3.20;;;;;;;;;;6246913;22;20413;-79
2023/03/30 00:47:14;;;;;;;10.23;3.03;;;;;;;;;;6247084;23;20467;-78
2023/03/30 00:49:46;;;;;;;7.97;3.17;;;;;;;;;;6246509;23;20408;-77
2023/03/30 00:52:23;;;;;;;6.07;2.57;;;;;;;;;;6246233;23;20417;-78
2023/03/30 00:54:53;;;;;;;7.60;2.90;;;;;;;;;;6246562;22;20436;-79
2023/03/30 00:57:32;;;;;;;6.40;2.83;;;;;;;;;;6250052;23;20409;-77
2023/03/30 01:00:00;;;;;;;6.90;2.80;;;;;;;;;;6249731;23;20414;-79
2023/03/30 01:21:22;;;;;;;7.37;3.57;;;;;;;;;;6242485;23;20551;-79
2023/03/30 01:24:07;;;;;;;9.50;3.37;;;;;;;;;;6206685;23;20477;-78
2023/03/30 01:26:48;;;;;;;12.10;3.60;;;;;;;;;;6259206;22;20499;-78
2023/03/30 01:29:31;;;;;;;8.60;3.43;;;;;;;;;;6260730;23;20416;-78
2023/03/30 01:32:07;;;;;;;9.47;2.80;;;;;;;;;;6260561;23;20415;-78
2023/03/30 01:34:56;;;;;;;15.00;3.33;;;;;;;;;;6256682;22;20393;-78
2023/03/30 01:37:51;;;;;;;7.67;2.70;;;;;;;;;;6256241;23;20389;-78
2023/03/30 01:40:28;;;;;;;11.07;3.30;;;;;;;;;;6256146;23;20405;-79
2023/03/30 01:43:16;;;;;;;11.27;3.23;;;;;;;;;;6257352;23;20408;-78
2023/03/30 01:45:49;;;;;;;12.83;3.20;;;;;;;;;;6254891;22;20488;-77
2023/03/30 01:51:15;;;;;;;10.40;2.83;;;;;;;;;;6225043;23;20409;-78
2023/03/30 01:53:47;;;;;;;7.07;3.30;;;;;;;;;;6253576;23;20423;-77
2023/03/30 01:56:18;;;;;;;9.60;2.60;;;;;;;;;;6252390;22;20520;-80
2023/03/30 01:58:59;;;;;;;9.97;2.77;;;;;;;;;;6252689;23;20405;-77
2023/03/30 02:01:32;;;;;;;9.73;3.00;;;;;;;;;;6253938;23;20485;-77
2023/03/30 02:04:00;;;;;;;11.70;3.53;;;;;;;;;;6251920;23;20473;-78
2023/03/30 02:06:42;;;;;;;13.53;3.40;;;;;;;;;;6250450;22;20936;-78
2023/03/30 02:09:19;;;;;;;7.57;3.10;;;;;;;;;;6251541;23;20417;-79
2023/03/30 02:11:54;;;;;;;9.07;3.07;;;;;;;;;;6254429;23;20424;-77
2023/03/30 02:14:43;;;;;;;13.70;3.80;;;;;;;;;;6254448;22;20417;-78
2023/03/30 02:17:26;;;;;;;10.50;3.90;;;;;;;;;;6253144;23;20468;-79
2023/03/30 02:19:55;;;;;;;8.37;3.10;;;;;;;;;;6252012;23;20802;-79
2023/03/30 02:22:37;;;;;;;7.47;3.40;;;;;;;;;;6251203;23;20409;-77
2023/03/30 02:25:16;;;;;;;8.53;3.10;;;;;;;;;;6249311;22;20433;-77
2023/03/30 02:28:03;;;;;;;7.80;4.03;;;;;;;;;;6248949;23;20440;-79
2023/03/30 02:30:51;;;;;;;14.23;3.90;;;;;;;;;;6249453;23;20436;-77
2023/03/30 02:33:31;;;;;;;12.03;2.87;;;;;;;;;;6232238;23;21045;-78
2023/03/30 02:36:14;;;;;;;7.97;3.10;;;;;;;;;;6251833;22;20441;-78
2023/03/30 02:39:05;;;;;;;10.43;3.00;;;;;;;;;;6252448;23;20413;-77
2023/03/30 02:41:44;;;;;;;11.77;3.70;;;;;;;;;;6252051;23;20414;-79
2023/03/30 02:44:18;;;;;;;12.40;3.40;;;;;;;;;;6251265;23;20800;-78
2023/03/30 02:47:04;;;;;;;11.70;4.00;;;;;;;;;;6250930;23;20405;-78
2023/03/30 02:50:05;;;;;;;8.50;3.03;;;;;;;;;;6249039;23;20415;-78
2023/03/30 02:52:59;;;;;;;6.17;3.13;;;;;;;;;;6209062;23;20416;-79
2023/03/30 02:55:40;;;;;;;10.00;4.00;;;;;;;;;;6248229;22;20433;-78
2023/03/30 02:58:15;;;;;;;8.60;3.33;;;;;;;;;;6248466;23;20405;-79
2023/03/30 03:01:04;;;;;;;7.53;3.30;;;;;;;;;;6247458;23;20454;-77
2023/03/30 03:03:38;;;;;;;10.73;3.00;;;;;;;;;;6247597;23;20577;-78
2023/03/30 03:06:13;;;;;;;8.77;3.67;;;;;;;;;;6249149;22;20424;-81
2023/03/30 03:08:46;;;;;;;9.63;3.60;;;;;;;;;;6249124;23;20968;-77
2023/03/30 03:11:23;;;;;;;16.93;3.93;;;;;;;;;;6247907;23;20479;-80
2023/03/30 03:13:56;;;;;;;9.43;4.50;;;;;;;;;;6247623;23;20463;-78
2023/03/30 03:16:36;;;;;;;11.63;4.00;;;;;;;;;;6247496;22;20495;-77
2023/03/30 03:19:16;;;;;;;14.67;3.77;;;;;;;;;;6247620;23;20432;-77
2023/03/30 03:21:50;;;;;;;8.50;4.00;;;;;;;;;;6248559;23;20429;-78
2023/03/30 03:27:09;;;;;;;6.60;3.40;;;;;;;;;;6248001;23;20440;-78
2023/03/30 03:29:43;;;;;;;12.80;3.20;;;;;;;;;;6249914;23;20473;-79
2023/03/30 03:32:11;;;;;;;9.93;3.70;;;;;;;;;;6249149;23;20405;-78
2023/03/30 03:34:47;;;;;;;14.53;4.17;;;;;;;;;;6248142;22;20429;-78
2023/03/30 03:37:18;;;;;;;8.57;3.07;;;;;;;;;;6247867;23;20448;-80
2023/03/30 03:39:52;;;;;;;7.53;3.80;;;;;;;;;;6247340;23;20417;-79
2023/03/30 03:42:24;;;;;;;11.40;4.17;;;;;;;;;;6247310;23;20413;-79
2023/03/30 03:44:52;;;;;;;13.73;4.37;;;;;;;;;;6249351;22;20429;-78
2023/03/30 03:47:24;;;;;;;9.53;4.00;;;;;;;;;;6246358;23;20452;-79
2023/03/30 03:49:56;;;;;;;13.63;4.57;;;;;;;;;;6247685;23;20410;-79
2023/03/30 03:52:27;;;;;;;11.77;4.30;;;;;;;;;;6246913;23;20413;-79
2023/03/30 03:54:57;;;;;;;11.20;3.80;;;;;;;;;;6246761;22;20443;-78
2023/03/30 03:57:33;;;;;;;9.83;3.70;;;;;;;;;;6247271;23;20444;-80
2023/03/30 04:00:02;;;;;;;11.33;4.20;;;;;;;;;;6248735;23;20413;-78
2023/03/30 04:02:31;;;;;;;8.77;3.83;;;;;;;;;;6250363;23;20439;-78
2023/03/30 04:05:02;;;;;;;7.90;4.27;;;;;;;;;;6246688;22;20500;-79
2023/03/30 04:07:33;;;;;;;11.90;4.23;;;;;;;;;;6246834;23;20393;-78
2023/03/30 04:10:05;;;;;;;8.33;3.70;;;;;;;;;;6246120;23;21024;-78
2023/03/30 04:12:40;;;;;;;12.87;4.23;;;;;;;;;;6246897;23;20762;-79
2023/03/30 04:15:11;;;;;;;10.53;4.00;;;;;;;;;;6246740;22;20495;-79
2023/03/30 04:17:40;;;;;;;9.60;3.53;;;;;;;;;;6246439;23;20459;-79
2023/03/30 04:20:12;;;;;;;8.57;3.67;;;;;;;;;;6251397;23;20389;-79
2023/03/30 04:22:53;;;;;;;6.37;4.30;;;;;;;;;;6250565;23;20950;-79
2023/03/30 04:25:41;;;;;;;12.70;4.77;;;;;;;;;;6252077;22;20444;-80
2023/03/30 04:28:20;;;;;;;11.60;4.60;;;;;;;;;;6254636;23;20406;-79
2023/03/30 04:30:51;;;;;;;18.63;5.33;;;;;;;;;;6260622;23;20476;-80
2023/03/30 04:33:21;;;;;;;11.03;5.30;;;;;;;;;;6263067;23;20405;-79
2023/03/30 04:35:53;;;;;;;9.87;4.13;;;;;;;;;;6263457;22;20460;-78
2023/03/30 04:38:22;;;;;;;7.47;4.60;;;;;;;;;;6265568;23;20436;-79
2023/03/30 04:40:52;;;;;;;12.07;3.80;;;;;;;;;;6263750;23;20382;-78
2023/03/30 04:43:23;;;;;;;12.97;3.90;;;;;;;;;;6263952;23;20451;-77
2023/03/30 04:45:54;;;;;;;8.50;4.03;;;;;;;;;;6264240;22;20412;-78
2023/03/30 04:51:21;;;;;;;14.80;4.50;;;;;;;;;;6261196;23;20408;-78
2023/03/30 04:53:57;;;;;;;13.30;4.37;;;;;;;;;;6264972;23;21062;-80
2023/03/30 04:56:34;;;;;;;12.63;3.93;;;;;;;;;;6264678;22;20444;-79
2023/03/30 04:59:07;;;;;;;10.93;4.00;;;;;;;;;;6266827;23;20789;-79
2023/03/30 05:01:46;;;;;;;8.10;3.53;;;;;;;;;;6265861;23;20398;-77
2023/03/30 05:13:31;;;;;;;10.87;3.90;;;;;;;;;;6099355;23;20391;-78
2023/03/30 05:19:15;;;;;;;18.00;4.17;;;;;;;;;;6252462;23;20457;-78
2023/03/30 05:21:51;;;;;;;13.87;3.90;;;;;;;;;;6256609;23;20420;-80
2023/03/30 05:24:32;;;;;;;11.30;3.70;;;;;;;;;;6261562;22;20404;-79
2023/03/30 05:27:32;;;;;;;14.30;5.07;;;;;;;;;;6266098;23;20400;-79
2023/03/30 05:32:54;;;;;;;18.50;10.00;;;;;;;;;;6244025;23;20852;-79
2023/03/30 05:35:21;;;;;;;29.17;16.10;;;;;;;;;;6258827;22;20455;-78
2023/03/30 05:38:00;;;;;;;32.00;24.70;;;;;;;;;;6253194;23;20471;-79
2023/03/30 05:40:32;;;;;;;54.63;39.63;;;;;;;;;;6256994;23;20409;-78
2023/03/30 05:43:10;;;;;;;16.50;7.77;;;;;;;;;;6261318;23;20413;-78
2023/03/30 05:45:46;;;;;;;17.10;5.03;;;;;;;;;;6259204;22;20436;-78
2023/03/30 05:48:31;;;;;;;13.97;5.00;;;;;;;;;;6258625;23;20424;-79
2023/03/30 05:51:07;;;;;;;18.23;6.10;;;;;;;;;;6261087;23;20460;-78
2023/03/30 05:53:41;;;;;;;14.43;5.00;;;;;;;;;;6259674;23;20409;-79
2023/03/30 05:56:13;;;;;;;13.97;5.30;;;;;;;;;;6258675;22;20857;-79
2023/03/30 05:59:09;;;;;;;12.83;4.50;;;;;;;;;;6259860;23;20413;-79
2023/03/30 06:01:44;;;;;;;9.80;4.23;;;;;;;;;;6240364;23;20421;-78
2023/03/30 06:04:26;;;;;;;14.87;4.73;;;;;;;;;;6257236;23;20478;-79
2023/03/30 06:07:09;;;;;;;16.60;5.03;;;;;;;;;;6260823;23;20394;-77
2023/03/30 06:09:48;;;;;;;13.10;4.40;;;;;;;;;;6264737;23;20448;-77
2023/03/30 06:15:01;;;;;;;16.80;4.93;;;;;;;;;;6263517;22;21001;-78
2023/03/30 06:17:34;;;;;;;11.83;5.07;;;;;;;;;;6265555;23;20443;-77
2023/03/30 06:20:08;;;;;;;13.03;4.80;;;;;;;;;;6265817;23;20413;-78
2023/03/30 06:22:42;;;;;;;12.03;4.00;;;;;;;;;;6258086;23;20423;-80
2023/03/30 06:25:15;;;;;;;15.07;4.33;;;;;;;;;;6257103;22;20433;-77
2023/03/30 06:27:55;;;;;;;15.67;5.17;;;;;;;;;;6257989;23;20389;-78
2023/03/30 06:30:26;;;;;;;17.10;4.30;;;;;;;;;;6257463;23;20424;-77
2023/03/30 06:33:01;;;;;;;21.33;4.90;;;;;;;;;;6257402;23;20887;-79
2023/03/30 06:35:32;;;;;;;10.97;4.43;;;;;;;;;;6255741;22;20436;-78
2023/03/30 06:38:03;;;;;;;11.73;4.80;;;;;;;;;;6255083;23;20504;-80
2023/03/30 06:40:31;;;;;;;10.23;4.40;;;;;;;;;;6253996;23;20409;-78
2023/03/30 06:42:59;;;;;;;18.40;4.60;;;;;;;;;;6253427;23;20787;-77
2023/03/30 06:45:28;;;;;;;12.67;4.63;;;;;;;;;;6252361;22;20421;-78
2023/03/30 06:48:00;;;;;;;12.40;4.93;;;;;;;;;;6251662;23;20492;-78
2023/03/30 06:50:45;;;;;;;13.67;4.63;;;;;;;;;;6253675;23;20390;-77
2023/03/30 06:53:33;;;;;;;13.33;4.50;;;;;;;;;;6258007;23;20508;-78
2023/03/30 06:56:11;;;;;;;12.60;4.80;;;;;;;;;;6259037;22;20436;-79
2023/03/30 06:58:47;;;;;;;9.63;4.00;;;;;;;;;;6259772;23;20440;-78
2023/03/30 07:01:20;;;;;;;16.50;4.43;;;;;;;;;;6258543;23;20488;-79
2023/03/30 07:03:56;;;;;;;12.50;4.00;;;;;;;;;;6257371;23;20408;-78
2023/03/30 07:06:28;;;;;;;5.80;3.40;;;;;;;;;;6257613;22;20443;-78
2023/03/30 07:09:01;;;;;;;13.67;4.57;;;;;;;;;;6230448;23;20405;-79
2023/03/30 07:11:37;;;;;;;19.97;4.90;;;;;;;;;;6256684;23;20496;-78
2023/03/30 07:14:13;;;;;;;10.60;4.10;;;;;;;;;;6257663;23;20400;-79
2023/03/30 07:16:44;;;;;;;15.67;4.43;;;;;;;;;;6258172;22;20429;-79
2023/03/30 07:19:15;;;;;;;8.83;4.57;;;;;;;;;;6257532;23;20416;-78
2023/03/30 07:21:47;;;;;;;11.70;4.53;;;;;;;;;;6258775;23;20394;-78
2023/03/30 07:24:16;;;;;;;9.70;4.33;;;;;;;;;;6259252;23;20405;-77
2023/03/30 07:26:43;;;;;;;9.67;4.53;;;;;;;;;;6258570;22;20430;-78
2023/03/30 07:29:14;;;;;;;8.97;4.30;;;;;;;;;;6260009;23;20432;-77
2023/03/30 07:31:41;;;;;;;9.93;4.60;;;;;;;;;;6259133;23;20409;-79
2023/03/30 07:34:09;;;;;;;12.70;4.87;;;;;;;;;;6261238;23;20405;-79
2023/03/30 07:36:39;;;;;;;9.50;5.13;;;;;;;;;;6260666;22;20464;-78
2023/03/30 07:39:08;;;;;;;12.43;4.77;;;;;;;;;;6259001;23;20444;-76
2023/03/30 07:41:38;;;;;;;10.70;5.20;;;;;;;;;;6255150;23;20428;-77
2023/03/30 07:44:07;;;;;;;8.30;4.80;;;;;;;;;;6255488;23;20638;-77
2023/03/30 07:46:35;;;;;;;8.33;4.27;;;;;;;;;;6254386;22;20449;-77
2023/03/30 07:49:13;;;;;;;9.97;4.27;;;;;;;;;;6253299;23;20416;-77
2023/03/30 07:51:46;;;;;;;8.07;4.40;;;;;;;;;;6253472;23;20424;-78
2023/03/30 07:54:16;;;;;;;9.13;4.80;;;;;;;;;;6253305;23;20444;-78
2023/03/30 07:56:44;;;;;;;9.57;5.17;;;;;;;;;;6255291;23;20445;-77
2023/03/30 07:59:15;;;;;;;7.77;4.53;;;;;;;;;;6249434;23;20397;-78
2023/03/30 08:04:40;;;;;;;9.13;4.97;;;;;;;;;;6243311;22;21004;-77
2023/03/30 08:07:11;;;;;;;8.00;4.33;;;;;;;;;;6247302;23;20915;-76
2023/03/30 08:09:52;;;;;;;9.30;4.77;;;;;;;;;;6247842;23;20396;-79
2023/03/30 08:12:34;;;;;;;7.33;4.97;;;;;;;;;;6243877;23;20409;-77
2023/03/30 08:15:08;;;;;;;9.37;5.03;;;;;;;;;;6247560;22;20429;-77
2023/03/30 08:17:38;;;;;;;11.03;4.13;;;;;;;;;;6248120;23;20440;-78
2023/03/30 08:20:12;;;;;;;7.43;4.23;;;;;;;;;;6252466;23;20409;-78
2023/03/30 08:22:43;;;;;;;4.53;3.50;;;;;;;;;;6250330;23;20398;-78
2023/03/30 08:25:11;;;;;;;7.63;4.13;;;;;;;;;;6248888;22;20941;-78
2023/03/30 08:27:39;;;;;;;9.77;4.07;;;;;;;;;;6254156;23;20394;-78
2023/03/30 08:30:16;;;;;;;9.43;3.97;;;;;;;;;;6256378;23;20413;-77
2023/03/30 08:32:57;;;;;;;7.93;3.43;;;;;;;;;;6227503;23;20406;-77
2023/03/30 08:35:35;;;;;;;4.70;3.80;;;;;;;;;;6253795;22;20440;-77
2023/03/30 08:38:30;;;;;;;10.13;4.20;;;;;;;;;;6252110;23;20433;-77
2023/03/30 08:41:26;;;;;;;7.20;4.00;;;;;;;;;;6248879;23;20459;-77
2023/03/30 08:44:01;;;;;;;4.53;3.87;;;;;;;;;;6248714;23;20493;-76
2023/03/30 08:46:30;;;;;;;7.13;3.83;;;;;;;;;;6246305;22;20425;-78
2023/03/30 08:49:27;;;;;;;4.07;3.67;;;;;;;;;;6246326;23;20839;-77
2023/03/30 08:51:57;;;;;;;6.63;4.07;;;;;;;;;;6236079;23;20456;-77
2023/03/30 08:54:35;;;;;;;6.80;4.40;;;;;;;;;;6244365;22;20412;-77
2023/03/30 08:57:11;;;;;;;6.60;4.00;;;;;;;;;;6246055;23;20409;-79
2023/03/30 08:59:45;;;;;;;6.20;3.70;;;;;;;;;;6245000;23;20925;-77
2023/03/30 09:02:23;;;;;;;8.00;4.00;;;;;;;;;;6245464;23;20433;-78
2023/03/30 09:05:00;;;;;;;5.90;3.47;;;;;;;;;;6253629;22;20417;-77
2023/03/30 09:07:31;;;;;;;13.80;4.57;;;;;;;;;;6257508;23;20404;-77
2023/03/30 09:10:11;;;;;;;5.53;3.73;;;;;;;;;;6262354;23;20397;-78
2023/03/30 09:12:52;;;;;;;9.53;4.33;;;;;;;;;;6259729;23;20415;-78
2023/03/30 09:15:22;;;;;;;9.97;4.60;;;;;;;;;;6259024;22;20501;-78
2023/03/30 09:17:54;;;;;;;4.47;3.27;;;;;;;;;;6251998;23;20447;-77
2023/03/30 09:20:23;;;;;;;5.80;4.00;;;;;;;;;;6246334;23;20386;-78
2023/03/30 09:22:53;;;;;;;6.17;3.60;;;;;;;;;;6244875;23;20409;-77
2023/03/30 09:25:24;;;;;;;11.50;4.57;;;;;;;;;;6244841;22;20441;-77
2023/03/30 09:27:57;;;;;;;6.30;3.40;;;;;;;;;;6247765;23;20421;-78
2023/03/30 09:30:26;;;;;;;7.37;4.20;;;;;;;;;;6247075;23;20417;-79
2023/03/30 09:32:59;;;;;;;4.23;3.37;;;;;;;;;;6247348;23;20406;-77
2023/03/30 09:35:30;;;;;;;4.87;3.33;;;;;;;;;;6248192;22;20436;-78
2023/03/30 09:37:57;;;;;;;4.23;2.53;;;;;;;;;;6249176;23;20949;-79
2023/03/30 09:40:32;;;;;;;7.10;2.80;;;;;;;;;;6249379;23;20441;-77
2023/03/30 09:43:05;;;;;;;3.43;2.53;;;;;;;;;;6249071;23;20416;-79
2023/03/30 09:45:35;;;;;;;4.50;3.37;;;;;;;;;;6249699;22;20429;-78
2023/03/30 09:48:16;;;;;;;4.53;3.30;;;;;;;;;;6248417;23;20413;-78
2023/03/30 09:50:47;;;;;;;6.60;3.40;;;;;;;;;;6247666;23;20405;-78
2023/03/30 09:53:20;;;;;;;5.83;3.20;;;;;;;;;;6245932;23;20779;-77
2023/03/30 09:55:56;;;;;;;4.70;2.70;;;;;;;;;;6247740;22;20969;-79
2023/03/30 09:58:43;;;;;;;5.07;3.50;;;;;;;;;;6249403;23;20436;-77
2023/03/30 10:01:17;;;;;;;4.57;3.70;;;;;;;;;;6250074;23;20818;-78
2023/03/30 10:04:16;;;;;;;;;;;;;;;;;;;;;
2023/03/30 10:06:52;;;;;;;4.73;3.00;;;;;;;;;;6251535;22;20413;-78
2023/03/30 10:09:51;;;;;;;3.53;3.20;;;;;;;;;;6251911;23;20393;-79
2023/03/30 10:12:24;;;;;;;3.73;3.00;;;;;;;;;;6254155;23;20424;-78
2023/03/30 10:15:12;;;;;;;4.20;3.10;;;;;;;;;;6255273;22;20434;-77
2023/03/30 10:17:53;;;;;;;3.93;3.50;;;;;;;;;;6254666;23;20437;-78
2023/03/30 10:20:35;;;;;;;5.87;3.30;;;;;;;;;;6257144;23;20416;-77
2023/03/30 10:23:08;;;;;;;4.33;3.23;;;;;;;;;;6256217;23;20410;-78
2023/03/30 10:25:50;;;;;;;5.27;4.77;;;;;;;;;;6251927;22;20527;-79
2023/03/30 10:28:20;;;;;;;3.60;3.30;;;;;;;;;;6256935;23;20460;-76
2023/03/30 10:31:17;;;;;;;4.73;3.23;;;;;;;;;;6256896;23;20406;-78
2023/03/30 10:33:53;;;;;;;5.10;4.17;;;;;;;;;;6257476;23;20392;-78
2023/03/30 10:36:32;;;;;;;5.20;3.67;;;;;;;;;;6258900;22;20487;-76
2023/03/30 10:39:28;;;;;;;4.70;3.90;;;;;;;;;;6258492;23;20433;-78
2023/03/30 10:42:09;;;;;;;3.33;3.13;;;;;;;;;;6258401;23;20463;-78
2023/03/30 10:44:52;;;;;;;8.43;3.80;;;;;;;;;;6257313;22;20435;-78
2023/03/30 10:47:31;;;;;;;6.07;4.07;;;;;;;;;;6258565;23;20405;-78
2023/03/30 10:52:55;;;;;;;6.80;4.40;;;;;;;;;;6243818;23;20409;-79
2023/03/30 10:55:36;;;;;;;4.43;3.67;;;;;;;;;;6253513;22;20429;-78
2023/03/30 10:58:26;;;;;;;5.27;3.70;;;;;;;;;;6255395;23;20441;-77
2023/03/30 11:01:06;;;;;;;4.37;3.53;;;;;;;;;;6255341;23;20440;-77
2023/03/30 11:03:36;;;;;;;5.10;4.03;;;;;;;;;;6253410;23;20413;-76
2023/03/30 11:06:07;;;;;;;7.30;4.00;;;;;;;;;;6250368;22;20437;-77
2023/03/30 11:08:37;;;;;;;6.60;4.47;;;;;;;;;;6249601;23;20388;-78
2023/03/30 11:11:06;;;;;;;4.30;3.90;;;;;;;;;;6247294;23;20413;-79
2023/03/30 11:13:38;;;;;;;7.70;4.30;;;;;;;;;;6246610;23;20899;-78
2023/03/30 11:16:08;;;;;;;3.87;3.30;;;;;;;;;;6249552;22;20456;-78
2023/03/30 11:18:43;;;;;;;3.70;3.40;;;;;;;;;;6250209;23;20536;-78
2023/03/30 11:21:17;;;;;;;5.57;3.97;;;;;;;;;;6250054;23;20492;-77
2023/03/30 11:23:47;;;;;;;4.20;3.70;;;;;;;;;;6247510;23;20409;-78
2023/03/30 11:26:19;;;;;;;4.40;4.00;;;;;;;;;;6245307;22;20731;-78
2023/03/30 11:28:58;;;;;;;3.70;3.40;;;;;;;;;;6246390;23;20424;-79
2023/03/30 11:31:33;;;;;;;4.80;3.70;;;;;;;;;;6245589;23;20440;-78
2023/03/30 11:34:09;;;;;;;3.87;3.57;;;;;;;;;;6245581;23;20436;-78
2023/03/30 11:36:45;;;;;;;5.40;3.37;;;;;;;;;;6248552;22;20495;-76
2023/03/30 11:39:17;;;;;;;8.73;3.77;;;;;;;;;;6246871;23;20787;-77
2023/03/30 11:41:49;;;;;;;4.20;3.60;;;;;;;;;;6248293;23;20740;-78
2023/03/30 11:44:17;;;;;;;8.17;4.33;;;;;;;;;;6244803;23;20409;-77
2023/03/30 11:46:51;;;;;;;7.23;3.50;;;;;;;;;;6247246;22;20427;-78
2023/03/30 11:49:26;;;;;;;5.70;3.70;;;;;;;;;;6245227;23;20378;-77
2023/03/30 11:52:03;;;;;;;5.23;3.80;;;;;;;;;;6245242;23;20400;-77
2023/03/30 11:54:48;;;;;;;8.33;3.60;;;;;;;;;;6244712;22;20894;-78
2023/03/30 11:57:20;;;;;;;3.67;2.73;;;;;;;;;;6225643;23;20499;-76
2023/03/30 12:02:38;;;;;;;5.33;3.77;;;;;;;;;;6245474;23;20410;-79
2023/03/30 12:05:10;;;;;;;3.60;3.30;;;;;;;;;;6246328;22;20451;-77
2023/03/30 12:07:47;;;;;;;3.80;3.50;;;;;;;;;;6246021;23;20420;-78
2023/03/30 12:10:17;;;;;;;5.47;3.67;;;;;;;;;;6247442;23;20382;-77
2023/03/30 12:12:59;;;;;;;5.73;3.93;;;;;;;;;;6246515;23;20366;-78
2023/03/30 12:15:40;;;;;;;4.90;3.40;;;;;;;;;;6247661;22;20425;-77
2023/03/30 12:18:15;;;;;;;6.83;3.63;;;;;;;;;;6247605;23;20494;-77
2023/03/30 12:20:48;;;;;;;4.23;3.20;;;;;;;;;;6247177;23;20400;-76
2023/03/30 12:23:24;;;;;;;5.27;3.70;;;;;;;;;;6247625;23;20415;-77
2023/03/30 12:26:00;;;;;;;4.77;3.70;;;;;;;;;;6249072;22;20501;-77
2023/03/30 12:28:46;;;;;;;5.90;3.73;;;;;;;;;;6251801;23;20394;-77
2023/03/30 12:31:19;;;;;;;3.70;3.40;;;;;;;;;;6247793;23;21134;-77
2023/03/30 12:33:55;;;;;;;5.60;3.53;;;;;;;;;;6246806;23;20406;-78
2023/03/30 12:36:33;;;;;;;5.10;4.00;;;;;;;;;;6247676;22;20948;-76
2023/03/30 12:39:20;;;;;;;6.43;3.83;;;;;;;;;;6250003;23;20432;-77
2023/03/30 12:42:04;;;;;;;9.33;4.73;;;;;;;;;;6250099;23;20481;-77
2023/03/30 12:44:39;;;;;;;8.63;4.00;;;;;;;;;;6248908;22;20409;-76
2023/03/30 12:47:29;;;;;;;4.80;4.13;;;;;;;;;;6250619;23;20409;-76
2023/03/30 12:50:18;;;;;;;5.33;3.63;;;;;;;;;;6251524;23;20440;-76
2023/03/30 12:52:54;;;;;;;6.80;4.03;;;;;;;;;;6249990;23;20440;-79
2023/03/30 12:55:30;;;;;;;7.30;3.70;;;;;;;;;;6248564;22;20435;-78
2023/03/30 12:58:07;;;;;;;6.03;4.03;;;;;;;;;;6248822;23;20420;-76
2023/03/30 13:00:46;;;;;;;5.70;3.60;;;;;;;;;;6250996;23;20444;-77
2023/03/30 13:03:28;;;;;;;7.20;3.73;;;;;;;;;;6248494;23;20914;-78
2023/03/30 13:05:57;;;;;;;4.90;4.13;;;;;;;;;;6254012;22;20429;-80
2023/03/30 13:08:29;;;;;;;3.97;3.13;;;;;;;;;;6250882;23;20432;-78
2023/03/30 13:11:07;;;;;;;5.87;3.60;;;;;;;;;;6252289;23;20409;-77
2023/03/30 13:13:49;;;;;;;4.93;2.93;;;;;;;;;;6251279;23;20508;-77
2023/03/30 13:16:41;;;;;;;3.63;3.10;;;;;;;;;;6251629;22;20437;-76
2023/03/30 13:19:23;;;;;;;3.73;3.23;;;;;;;;;;6254710;23;20433;-77
2023/03/30 13:21:56;;;;;;;4.60;3.00;;;;;;;;;;6259295;23;20444;-76
2023/03/30 13:24:36;;;;;;;5.27;2.93;;;;;;;;;;6256574;22;20401;-78
2023/03/30 13:27:29;;;;;;;4.17;2.90;;;;;;;;;;6257482;23;20394;-78
2023/03/30 13:29:58;;;;;;;3.30;2.50;;;;;;;;;;6230413;23;20405;-77
2023/03/30 13:32:36;;;;;;;4.00;2.43;;;;;;;;;;6256737;23;20405;-77
2023/03/30 13:35:10;;;;;;;6.20;2.60;;;;;;;;;;6258859;22;20429;-77
2023/03/30 13:37:57;;;;;;;4.23;3.40;;;;;;;;;;6256897;23;20405;-78
2023/03/30 13:40:28;;;;;;;2.43;2.23;;;;;;;;;;6256035;23;20436;-77
2023/03/30 13:43:04;;;;;;;3.93;2.40;;;;;;;;;;6254043;23;20417;-78
2023/03/30 13:45:39;;;;;;;7.30;3.27;;;;;;;;;;6253134;22;20425;-77
2023/03/30 13:48:11;;;;;;;3.13;2.83;;;;;;;;;;6254070;23;20906;-77
2023/03/30 13:50:41;;;;;;;4.97;3.23;;;;;;;;;;6252536;23;20371;-75
2023/03/30 13:53:21;;;;;;;3.90;3.10;;;;;;;;;;6250958;23;20413;-76
2023/03/30 13:55:51;;;;;;;4.20;3.07;;;;;;;;;;6249909;22;20421;-77
2023/03/30 13:58:22;;;;;;;3.23;2.90;;;;;;;;;;6248277;23;20494;-77
2023/03/30 14:00:51;;;;;;;7.73;3.60;;;;;;;;;;6248314;23;20497;-77
2023/03/30 14:06:21;;;;;;;3.10;2.80;;;;;;;;;;6236363;22;20426;-77
2023/03/30 14:09:01;;;;;;;3.63;2.80;;;;;;;;;;6249421;23;20388;-76
2023/03/30 14:11:38;;;;;;;3.83;3.10;;;;;;;;;;6250176;23;20524;-77
2023/03/30 14:14:06;;;;;;;4.17;2.37;;;;;;;;;;6253595;23;20386;-78
2023/03/30 14:16:36;;;;;;;3.10;2.80;;;;;;;;;;6253014;22;20429;-79
2023/03/30 14:19:11;;;;;;;2.50;2.30;;;;;;;;;;6252851;23;20433;-78
2023/03/30 14:21:38;;;;;;;6.10;2.70;;;;;;;;;;6252583;23;20411;-79
2023/03/30 14:24:09;;;;;;;7.27;2.60;;;;;;;;;;6252400;23;20738;-77
2023/03/30 14:26:40;;;;;;;3.30;2.40;;;;;;;;;;6252000;22;20487;-78
2023/03/30 14:29:15;;;;;;;6.57;2.13;;;;;;;;;;6252669;23;20659;-77
2023/03/30 14:31:53;;;;;;;6.33;3.00;;;;;;;;;;6249283;23;20495;-77
2023/03/30 14:34:41;;;;;;;3.10;2.30;;;;;;;;;;6247865;22;20858;-78
2023/03/30 14:43:18;;;;;;;2.50;1.90;;;;;;;;;;6252536;23;20397;-77
2023/03/30 14:45:50;;;;;;;1.97;1.77;;;;;;;;;;6254127;22;20452;-78
2023/03/30 14:48:34;;;;;;;3.80;2.10;;;;;;;;;;6255557;23;20410;-77
2023/03/30 14:51:06;;;;;;;2.23;2.03;;;;;;;;;;6255460;23;20401;-77
2023/03/30 14:53:45;;;;;;;3.87;2.10;;;;;;;;;;6255710;23;20440;-78
2023/03/30 14:56:23;;;;;;;2.60;2.40;;;;;;;;;;6256421;22;20473;-78
2023/03/30 15:02:12;;;;;;;5.23;1.90;;;;;;;;;;6255446;23;20415;-77
2023/03/30 15:04:46;;;;;;;2.17;1.67;;;;;;;;;;6257986;22;20413;-76
2023/03/30 15:07:22;;;;;;;2.17;1.87;;;;;;;;;;6256784;23;20400;-78
2023/03/30 15:10:01;;;;;;;3.00;1.90;;;;;;;;;;6255510;23;20401;-78
2023/03/30 15:12:35;;;;;;;2.00;1.73;;;;;;;;;;6255358;23;20370;-78
2023/03/30 15:15:32;;;;;;;3.80;1.80;;;;;;;;;;6255479;22;20429;-78
2023/03/30 15:18:08;;;;;;;1.80;1.67;;;;;;;;;;6255836;23;20425;-77
2023/03/30 15:23:42;;;;;;;5.67;2.60;;;;;;;;;;6251187;23;20409;-78
2023/03/30 15:26:15;;;;;;;2.90;2.50;;;;;;;;;;6254016;22;20440;-77
2023/03/30 15:29:05;;;;;;;2.67;2.20;;;;;;;;;;6254803;23;20852;-77
2023/03/30 15:31:54;;;;;;;4.27;2.20;;;;;;;;;;6253978;23;20485;-77
2023/03/30 15:34:34;;;;;;;3.67;2.10;;;;;;;;;;6253669;22;20453;-77
2023/03/30 15:37:23;;;;;;;4.20;2.67;;;;;;;;;;6252651;23;20409;-77
2023/03/30 15:40:03;;;;;;;3.23;2.07;;;;;;;;;;6255847;23;20433;-79
2023/03/30 15:42:35;;;;;;;2.83;2.30;;;;;;;;;;6255738;23;20467;-77
2023/03/30 15:45:12;;;;;;;4.03;2.60;;;;;;;;;;6255620;22;20471;-77
2023/03/30 15:50:52;;;;;;;3.40;1.97;;;;;;;;;;6252846;23;20405;-76
2023/03/30 15:56:32;;;;;;;2.57;1.97;;;;;;;;;;6252646;22;20429;-77
2023/03/30 15:59:20;;;;;;;;;;;;;;;;;;;;;
2023/03/30 16:02:18;;;;;;;4.27;1.80;;;;;;;;;;6254894;23;20393;-78
2023/03/30 16:05:09;;;;;;;1.63;1.53;;;;;;;;;;6256029;22;20512;-79
2023/03/30 16:07:46;;;;;;;1.70;1.60;;;;;;;;;;6257643;23;20406;-76
2023/03/30 16:10:27;;;;;;;1.87;1.57;;;;;;;;;;6255450;23;20409;-76
2023/03/30 16:13:03;;;;;;;2.40;1.57;;;;;;;;;;6257639;23;20405;-76
2023/03/30 16:21:23;;;;;;;1.20;1.10;;;;;;;;;;6234631;23;20446;-77
2023/03/30 16:23:58;;;;;;;2.70;1.03;;;;;;;;;;6261012;23;20421;-78
2023/03/30 16:26:41;;;;;;;2.53;1.47;;;;;;;;;;6261765;22;20408;-78
2023/03/30 16:29:20;;;;;;;1.80;0.83;;;;;;;;;;6264102;23;20413;-77
2023/03/30 16:31:48;;;;;;;2.90;1.37;;;;;;;;;;6261417;23;20412;-78
2023/03/30 16:34:16;;;;;;;3.23;1.10;;;;;;;;;;6258554;23;20417;-77
2023/03/30 16:36:46;;;;;;;1.67;1.30;;;;;;;;;;6257372;22;20459;-76
2023/03/30 16:42:17;;;;;;;2.60;1.20;;;;;;;;;;6259495;23;20410;-78
2023/03/30 16:44:46;;;;;;;4.80;1.47;;;;;;;;;;6259182;22;20452;-77
2023/03/30 16:47:20;;;;;;;2.93;1.30;;;;;;;;;;6258348;23;20397;-77
2023/03/30 16:52:51;;;;;;;2.40;1.27;;;;;;;;;;6247731;23;20417;-77
2023/03/30 16:55:38;;;;;;;3.40;1.37;;;;;;;;;;6252158;22;20433;-78
2023/03/30 16:58:17;;;;;;;5.80;1.77;;;;;;;;;;6252439;23;20459;-78
2023/03/30 17:00:59;;;;;;;2.77;1.40;;;;;;;;;;6251239;23;20437;-77